Time;durP1;ratioP1;P1;durP2;ratioP2;P2;SDS_P1;SDS_P2;PMS_P1;PMS_P2;Temp;Humidity;BMP_temperature;BMP_pressure;BME280_temperature;BME280_humidity;BME280_pressure;Samples;Min_cycle;Max_cycle;Signal;HPM_P1;HPM_P2
2021/09/14 00:00:52;;;;;;;;;;;15.10;99.90;;;;;;5138118;27;19929;-85
2021/09/14 00:03:20;;;;;;;;;;;15.10;99.90;;;;;;5138637;27;19923;-85
2021/09/14 00:05:49;;;;;;;;;;;15.10;99.90;;;;;;5138235;27;19924;-85
2021/09/14 00:08:18;;;;;;;;;;;15.10;99.90;;;;;;5137966;27;19923;-84
2021/09/14 00:10:47;;;;;;;;;;;15.10;99.90;;;;;;5138112;27;20228;-84
2021/09/14 00:13:14;;;;;;;;;;;15.10;99.90;;;;;;5138409;27;19923;-85
2021/09/14 00:15:43;;;;;;;;;;;15.10;99.90;;;;;;5137992;27;19928;-84
2021/09/14 00:18:11;;;;;;;;;;;15.10;99.90;;;;;;5138213;27;20097;-84
2021/09/14 00:20:39;;;;;;;;;;;15.10;99.90;;;;;;5138110;27;19934;-85
2021/09/14 00:23:07;;;;;;;;;;;15.10;99.90;;;;;;5137830;27;20358;-85
2021/09/14 00:25:37;;;;;;;;;;;15.10;99.90;;;;;;5137747;27;19972;-85
2021/09/14 00:28:05;;;;;;;;;;;15.00;99.90;;;;;;5137993;27;20262;-85
2021/09/14 00:30:33;;;;;;;;;;;15.00;99.90;;;;;;5137818;27;19934;-84
2021/09/14 00:33:01;;;;;;;;;;;15.00;99.90;;;;;;5137704;27;19923;-85
2021/09/14 00:35:29;;;;;;;;;;;15.00;99.90;;;;;;5137655;27;19945;-84
2021/09/14 00:37:57;;;;;;;;;;;15.00;99.90;;;;;;5137805;27;19924;-84
2021/09/14 00:40:25;;;;;;;;;;;15.00;99.90;;;;;;5137439;27;20254;-84
2021/09/14 00:42:55;;;;;;;;;;;15.00;99.90;;;;;;5137494;27;19923;-85
2021/09/14 00:45:23;;;;;;;;;;;15.00;99.90;;;;;;5137573;27;19923;-84
2021/09/14 00:47:53;;;;;;;;;;;15.00;99.90;;;;;;5137338;27;20412;-85
2021/09/14 00:50:24;;;;;;;;;;;14.90;99.90;;;;;;5137445;27;20320;-84
2021/09/14 00:52:54;;;;;;;;;;;15.00;99.90;;;;;;5137374;27;19938;-83
2021/09/14 00:55:23;;;;;;;;;;;14.90;99.90;;;;;;5137274;27;20014;-84
2021/09/14 00:57:51;;;;;;;;;;;14.90;99.90;;;;;;5137484;27;20381;-85
2021/09/14 01:00:21;;;;;;;;;;;14.90;99.90;;;;;;5136943;27;19930;-85
2021/09/14 01:02:49;;;;;;;;;;;14.90;99.90;;;;;;5137017;27;19923;-85
2021/09/14 01:05:20;;;;;;;;;;;15.00;99.90;;;;;;5118913;27;20032;-85
2021/09/14 01:07:48;;;;;;;;;;;14.90;99.90;;;;;;5136842;27;19934;-84
2021/09/14 01:10:16;;;;;;;;;;;14.90;99.90;;;;;;5136971;27;19931;-85
2021/09/14 01:12:47;;;;;;;;;;;14.90;99.90;;;;;;5136790;27;20015;-85
2021/09/14 01:15:14;;;;;;;;;;;14.90;99.90;;;;;;5133868;27;19923;-84
2021/09/14 01:17:46;;;;;;;;;;;14.90;99.90;;;;;;5136805;27;19931;-85
2021/09/14 01:20:29;;;;;;;;;;;14.90;99.90;;;;;;5136804;27;20313;-85
2021/09/14 01:23:12;;;;;;;;;;;14.90;99.90;;;;;;5132214;27;19923;-85
2021/09/14 01:25:44;;;;;;;;;;;14.90;99.90;;;;;;5118794;27;19934;-84
2021/09/14 01:28:14;;;;;;;;;;;14.90;99.90;;;;;;5136678;27;19932;-84
2021/09/14 01:30:46;;;;;;;;;;;14.90;99.90;;;;;;5136398;27;19957;-85
2021/09/14 01:33:23;;;;;;;;;;;14.90;99.90;;;;;;5136528;27;20414;-85
2021/09/14 01:35:52;;;;;;;;;;;14.90;99.90;;;;;;5136055;27;19923;-85
2021/09/14 01:38:20;;;;;;;;;;;14.80;99.90;;;;;;5136611;27;20022;-85
2021/09/14 01:40:49;;;;;;;;;;;14.80;99.90;;;;;;5136682;27;19988;-85
2021/09/14 01:43:18;;;;;;;;;;;14.70;99.90;;;;;;5136280;27;19971;-85
2021/09/14 01:45:45;;;;;;;;;;;14.70;99.90;;;;;;5136483;27;20294;-86
2021/09/14 01:48:14;;;;;;;;;;;14.50;99.90;;;;;;5136478;27;19923;-87
2021/09/14 01:50:45;;;;;;;;;;;14.50;99.90;;;;;;5136497;27;19923;-87
2021/09/14 01:53:14;;;;;;;;;;;14.40;99.90;;;;;;5135779;27;19923;-87
2021/09/14 01:55:46;;;;;;;;;;;14.30;99.90;;;;;;5118254;27;19974;-88
2021/09/14 01:58:15;;;;;;;;;;;14.30;99.90;;;;;;5136219;27;19931;-87
2021/09/14 02:00:49;;;;;;;;;;;14.30;99.90;;;;;;5135953;27;20351;-88
2021/09/14 02:03:25;;;;;;;;;;;14.20;99.90;;;;;;5136187;27;19923;-87
2021/09/14 02:33:56;;;;;;;;;;;14.30;99.90;;;;;;5140189;27;20064;-87
2021/09/14 02:39:19;;;;;;;;;;;14.30;99.90;;;;;;5139851;27;19930;-87
2021/09/14 03:00:52;;;;;;;;;;;14.30;99.90;;;;;;5139461;27;20395;-86
2021/09/14 03:03:21;;;;;;;;;;;14.30;99.90;;;;;;5139392;27;20236;-86
2021/09/14 03:05:48;;;;;;;;;;;14.20;99.90;;;;;;5139469;27;19924;-87
2021/09/14 03:08:15;;;;;;;;;;;14.30;99.90;;;;;;5139115;27;20014;-87
2021/09/14 03:10:42;;;;;;;;;;;14.30;99.90;;;;;;5139318;27;19939;-87
2021/09/14 03:13:09;;;;;;;;;;;14.30;99.90;;;;;;5139514;27;19924;-87
2021/09/14 03:15:36;;;;;;;;;;;14.30;99.90;;;;;;5139404;27;19924;-84
2021/09/14 03:18:04;;;;;;;;;;;14.30;99.90;;;;;;5139157;27;19923;-86
2021/09/14 03:20:34;;;;;;;;;;;14.30;99.90;;;;;;5139201;27;20259;-86
2021/09/14 03:23:01;;;;;;;;;;;14.30;99.90;;;;;;5139120;27;19961;-86
2021/09/14 03:25:28;;;;;;;;;;;14.30;99.90;;;;;;5138991;27;19973;-87
2021/09/14 03:27:55;;;;;;;;;;;14.30;99.90;;;;;;5138260;27;19923;-86
2021/09/14 03:30:22;;;;;;;;;;;14.30;99.90;;;;;;5138455;27;19933;-87
2021/09/14 03:32:49;;;;;;;;;;;14.30;99.90;;;;;;5138847;27;20021;-86
2021/09/14 03:35:15;;;;;;;;;;;14.30;99.90;;;;;;5138877;27;19933;-86
2021/09/14 03:37:44;;;;;;;;;;;14.30;99.90;;;;;;5139108;27;19937;-84
2021/09/14 03:40:11;;;;;;;;;;;14.30;99.90;;;;;;5138625;27;20259;-87
2021/09/14 03:42:38;;;;;;;;;;;14.30;99.90;;;;;;5138688;27;20023;-87
2021/09/14 03:45:05;;;;;;;;;;;14.30;99.90;;;;;;5138792;27;19923;-87
2021/09/14 03:47:32;;;;;;;;;;;14.30;99.90;;;;;;5138530;27;19927;-86
2021/09/14 03:49:59;;;;;;;;;;;14.30;99.90;;;;;;5138584;27;20010;-87
2021/09/14 03:52:26;;;;;;;;;;;14.30;99.90;;;;;;5138376;27;19930;-84
2021/09/14 03:54:54;;;;;;;;;;;14.40;99.90;;;;;;5138439;27;19923;-87
2021/09/14 03:57:21;;;;;;;;;;;14.40;99.90;;;;;;5138469;27;19957;-84
2021/09/14 03:59:48;;;;;;;;;;;14.40;99.90;;;;;;5138419;27;19923;-86
2021/09/14 04:02:18;;;;;;;;;;;14.40;99.90;;;;;;5138386;27;19933;-87
2021/09/14 04:05:03;;;;;;;;;;;14.30;99.90;;;;;;5138309;27;20361;-86
2021/09/14 04:07:38;;;;;;;;;;;14.30;99.90;;;;;;5138117;27;20002;-86
2021/09/14 04:10:07;;;;;;;;;;;14.40;99.90;;;;;;5138498;27;19923;-86
2021/09/14 04:12:34;;;;;;;;;;;14.30;99.90;;;;;;5138257;27;19923;-84
2021/09/14 04:15:01;;;;;;;;;;;14.30;99.90;;;;;;5138332;27;20037;-87
2021/09/14 04:17:28;;;;;;;;;;;14.30;99.90;;;;;;5137940;27;19933;-86
2021/09/14 04:19:55;;;;;;;;;;;14.30;99.90;;;;;;5137836;27;19923;-86
2021/09/14 04:22:22;;;;;;;;;;;14.30;99.90;;;;;;5137821;27;19927;-86
2021/09/14 04:24:48;;;;;;;;;;;14.30;99.90;;;;;;5137963;27;19923;-86
2021/09/14 04:27:17;;;;;;;;;;;14.30;99.90;;;;;;5137818;27;19923;-86
2021/09/14 04:29:44;;;;;;;;;;;14.30;99.90;;;;;;5137858;27;19970;-86
2021/09/14 04:32:10;;;;;;;;;;;15.20;99.90;;;;;;5117322;28;19923;-87
2021/09/14 04:34:37;;;;;;;;;;;14.30;99.90;;;;;;5117426;28;19923;-87
2021/09/14 04:37:04;;;;;;;;;;;14.30;99.90;;;;;;5117081;28;19934;-87
2021/09/14 04:39:31;;;;;;;;;;;14.30;99.90;;;;;;5116602;28;20344;-87
2021/09/14 04:41:58;;;;;;;;;;;14.30;99.90;;;;;;5117028;28;20251;-86
2021/09/14 04:44:26;;;;;;;;;;;14.30;99.90;;;;;;5116943;28;19931;-86
2021/09/14 04:46:53;;;;;;;;;;;14.30;99.90;;;;;;5117032;28;19930;-84
2021/09/14 04:49:20;;;;;;;;;;;14.30;99.90;;;;;;5116787;28;19924;-86
2021/09/14 04:51:47;;;;;;;;;;;14.20;99.90;;;;;;5116843;28;20382;-87
2021/09/14 04:54:14;;;;;;;;;;;14.20;99.90;;;;;;5116766;28;20357;-84
2021/09/14 04:56:41;;;;;;;;;;;14.30;99.90;;;;;;5116705;28;20437;-87
2021/09/14 04:59:07;;;;;;;;;;;14.30;99.90;;;;;;5116631;28;19924;-87
2021/09/14 05:01:36;;;;;;;;;;;14.30;99.90;;;;;;5131969;27;19924;-86
2021/09/14 05:04:02;;;;;;;;;;;14.30;99.90;;;;;;5137047;27;19927;-87
2021/09/14 05:06:30;;;;;;;;;;;14.30;99.90;;;;;;5136840;27;19923;-87
2021/09/14 05:08:57;;;;;;;;;;;14.30;99.90;;;;;;5137195;27;19923;-86
2021/09/14 05:11:24;;;;;;;;;;;14.30;99.90;;;;;;5136808;27;20021;-87
2021/09/14 05:13:50;;;;;;;;;;;14.30;99.90;;;;;;5136971;27;19924;-87
2021/09/14 05:16:17;;;;;;;;;;;14.30;99.90;;;;;;5137139;27;19924;-87
2021/09/14 05:18:48;;;;;;;;;;;14.30;99.90;;;;;;5136990;27;19949;-86
2021/09/14 05:21:15;;;;;;;;;;;14.30;99.90;;;;;;5136953;27;19924;-86
2021/09/14 05:23:42;;;;;;;;;;;14.30;99.90;;;;;;5136694;27;19923;-86
2021/09/14 05:26:09;;;;;;;;;;;14.30;99.90;;;;;;5136739;27;19933;-86
2021/09/14 05:28:36;;;;;;;;;;;14.30;99.90;;;;;;5136679;27;19931;-84
2021/09/14 05:31:03;;;;;;;;;;;14.30;99.90;;;;;;5136651;27;19931;-84
2021/09/14 05:33:30;;;;;;;;;;;14.20;99.90;;;;;;5136547;27;19923;-86
2021/09/14 05:35:59;;;;;;;;;;;14.20;99.90;;;;;;5136513;27;19924;-86
2021/09/14 05:38:26;;;;;;;;;;;14.20;99.90;;;;;;5136726;27;19945;-86
2021/09/14 05:40:54;;;;;;;;;;;14.30;99.90;;;;;;5136596;27;20347;-86
2021/09/14 05:43:21;;;;;;;;;;;14.30;99.90;;;;;;5136453;27;19931;-86
2021/09/14 05:45:48;;;;;;;;;;;14.30;99.90;;;;;;5136622;27;19923;-86
2021/09/14 05:48:15;;;;;;;;;;;14.30;99.90;;;;;;5136456;27;19924;-86
2021/09/14 05:50:41;;;;;;;;;;;14.30;99.90;;;;;;5136147;27;19927;-86
2021/09/14 05:53:10;;;;;;;;;;;14.30;99.90;;;;;;5135991;27;19924;-86
2021/09/14 05:55:37;;;;;;;;;;;14.20;99.90;;;;;;5136468;27;19923;-86
2021/09/14 05:58:04;;;;;;;;;;;14.20;99.90;;;;;;5136204;27;19935;-86
2021/09/14 06:00:31;;;;;;;;;;;14.30;99.90;;;;;;5136283;27;19941;-86
2021/09/14 06:02:57;;;;;;;;;;;14.20;99.90;;;;;;5136246;27;19923;-86
2021/09/14 06:05:24;;;;;;;;;;;14.20;99.90;;;;;;5136270;27;19924;-86
2021/09/14 06:07:51;;;;;;;;;;;14.20;99.90;;;;;;5135861;28;20240;-85
2021/09/14 06:10:19;;;;;;;;;;;14.20;99.90;;;;;;5136173;28;20266;-86
2021/09/14 06:12:46;;;;;;;;;;;14.20;99.90;;;;;;5136022;28;20350;-86
2021/09/14 06:15:13;;;;;;;;;;;14.20;99.90;;;;;;5136301;28;19927;-85
2021/09/14 06:17:40;;;;;;;;;;;14.20;99.90;;;;;;5136056;28;20351;-86
2021/09/14 06:20:08;;;;;;;;;;;14.20;99.90;;;;;;5136075;28;20262;-86
2021/09/14 06:22:34;;;;;;;;;;;14.20;99.90;;;;;;5135811;28;19929;-86
2021/09/14 06:25:01;;;;;;;;;;;14.20;99.90;;;;;;5135796;28;19948;-86
2021/09/14 06:27:30;;;;;;;;;;;14.20;99.90;;;;;;5135926;28;19934;-86
2021/09/14 06:29:56;;;;;;;;;;;14.10;99.90;;;;;;5135944;28;19923;-86
2021/09/14 06:32:23;;;;;;;;;;;14.10;99.90;;;;;;5136019;28;19928;-86
2021/09/14 06:34:50;;;;;;;;;;;14.10;99.90;;;;;;5135893;28;19933;-86
2021/09/14 06:37:17;;;;;;;;;;;14.10;99.90;;;;;;5135977;28;19923;-86
2021/09/14 06:39:44;;;;;;;;;;;14.10;99.90;;;;;;5135845;28;19924;-86
2021/09/14 06:42:11;;;;;;;;;;;14.10;99.90;;;;;;5136007;28;19928;-86
2021/09/14 06:44:39;;;;;;;;;;;14.10;99.90;;;;;;5135803;28;19924;-85
2021/09/14 06:47:06;;;;;;;;;;;14.20;99.90;;;;;;5135739;28;20266;-86
2021/09/14 06:49:33;;;;;;;;;;;14.10;99.90;;;;;;5135930;28;19930;-86
2021/09/14 06:52:00;;;;;;;;;;;14.10;99.90;;;;;;5135619;28;20259;-86
2021/09/14 06:54:27;;;;;;;;;;;14.10;99.90;;;;;;5135629;28;20021;-86
2021/09/14 06:56:53;;;;;;;;;;;14.20;99.90;;;;;;5135537;28;19927;-86
2021/09/14 06:59:20;;;;;;;;;;;14.10;99.90;;;;;;5135580;28;19934;-86
2021/09/14 07:01:48;;;;;;;;;;;14.10;99.90;;;;;;5135481;28;19934;-86
2021/09/14 07:04:15;;;;;;;;;;;14.10;99.90;;;;;;5138745;27;19923;-86
2021/09/14 07:06:42;;;;;;;;;;;14.10;99.90;;;;;;5139118;27;19987;-86
2021/09/14 07:09:09;;;;;;;;;;;14.10;99.90;;;;;;5139369;27;19938;-85
2021/09/14 07:11:36;;;;;;;;;;;14.10;99.90;;;;;;5139267;27;19963;-85
2021/09/14 07:14:03;;;;;;;;;;;14.10;99.90;;;;;;5139453;27;19924;-85
2021/09/14 07:16:30;;;;;;;;;;;14.10;99.90;;;;;;5139416;27;20258;-85
2021/09/14 07:18:58;;;;;;;;;;;14.00;99.90;;;;;;5139143;27;19924;-85
2021/09/14 07:21:25;;;;;;;;;;;14.00;99.90;;;;;;5139018;27;20240;-85
2021/09/14 07:23:52;;;;;;;;;;;14.00;99.90;;;;;;5138996;27;19988;-83
2021/09/14 07:26:18;;;;;;;;;;;14.00;99.90;;;;;;5139276;27;19924;-82
2021/09/14 07:28:45;;;;;;;;;;;14.00;99.90;;;;;;5139114;27;19924;-80
2021/09/14 07:31:12;;;;;;;;;;;14.00;99.90;;;;;;5138900;27;19924;-79
2021/09/14 07:33:39;;;;;;;;;;;14.00;99.90;;;;;;5139083;27;19934;-81
2021/09/14 07:36:08;;;;;;;;;;;13.90;99.90;;;;;;5138921;27;20027;-80
2021/09/14 07:38:35;;;;;;;;;;;13.90;99.90;;;;;;5139199;27;19973;-81
2021/09/14 07:41:02;;;;;;;;;;;13.90;99.90;;;;;;5138708;27;19924;-78
2021/09/14 07:43:29;;;;;;;;;;;13.90;99.90;;;;;;5138619;27;20373;-79
2021/09/14 07:45:56;;;;;;;;;;;14.00;99.90;;;;;;5138691;27;19929;-78
2021/09/14 07:48:22;;;;;;;;;;;13.90;99.90;;;;;;5138622;27;19923;-79
2021/09/14 07:50:50;;;;;;;;;;;14.00;99.90;;;;;;5138626;27;20022;-78
2021/09/14 07:53:20;;;;;;;;;;;13.90;99.90;;;;;;5138503;27;19941;-78
2021/09/14 07:55:48;;;;;;;;;;;14.00;99.90;;;;;;5138679;27;19934;-78
2021/09/14 07:58:16;;;;;;;;;;;14.00;99.90;;;;;;5138481;27;19934;-78
2021/09/14 08:00:44;;;;;;;;;;;14.10;99.90;;;;;;5138408;27;19924;-79
2021/09/14 08:03:12;;;;;;;;;;;14.10;99.90;;;;;;5138202;27;19935;-78
2021/09/14 08:05:41;;;;;;;;;;;14.10;99.90;;;;;;5137463;27;20244;-78
2021/09/14 08:08:09;;;;;;;;;;;14.10;99.90;;;;;;5138104;27;19923;-79
2021/09/14 08:10:38;;;;;;;;;;;14.20;99.90;;;;;;5138171;27;19945;-79
2021/09/14 08:13:06;;;;;;;;;;;14.30;99.90;;;;;;5138121;27;19930;-78
2021/09/14 08:15:34;;;;;;;;;;;14.30;99.90;;;;;;5137265;27;20248;-78
2021/09/14 08:18:05;;;;;;;;;;;14.30;99.90;;;;;;5138006;27;20022;-80
2021/09/14 08:20:33;;;;;;;;;;;14.30;99.90;;;;;;5138309;27;19946;-80
2021/09/14 08:23:01;;;;;;;;;;;14.30;99.90;;;;;;5138152;27;19923;-78
2021/09/14 08:25:30;;;;;;;;;;;14.30;99.90;;;;;;5138005;27;19934;-78
2021/09/14 08:27:59;;;;;;;;;;;14.30;99.90;;;;;;5137908;27;19923;-79
2021/09/14 08:30:26;;;;;;;;;;;14.30;99.90;;;;;;5137913;27;20262;-79
2021/09/14 08:32:53;;;;;;;;;;;14.30;99.90;;;;;;5137944;27;19934;-79
2021/09/14 08:35:21;;;;;;;;;;;14.30;99.90;;;;;;5137356;27;20278;-79
2021/09/14 08:37:49;;;;;;;;;;;14.40;99.90;;;;;;5137678;27;20006;-80
2021/09/14 08:40:17;;;;;;;;;;;14.40;99.90;;;;;;5137697;27;20366;-79
2021/09/14 08:42:45;;;;;;;;;;;14.40;99.90;;;;;;5137733;27;19930;-78
2021/09/14 08:45:15;;;;;;;;;;;14.50;99.90;;;;;;5137356;27;19924;-79
2021/09/14 08:47:45;;;;;;;;;;;14.50;99.90;;;;;;5137395;27;19927;-80
2021/09/14 08:50:13;;;;;;;;;;;14.60;99.90;;;;;;5136724;27;19932;-80
2021/09/14 08:52:44;;;;;;;;;;;14.70;99.90;;;;;;5137471;27;20358;-79
2021/09/14 08:55:12;;;;;;;;;;;14.70;99.90;;;;;;5137334;27;20018;-80
2021/09/14 08:57:40;;;;;;;;;;;14.80;99.90;;;;;;5137217;27;19923;-82
2021/09/14 09:00:09;;;;;;;;;;;14.80;99.90;;;;;;5137083;27;19934;-81
2021/09/14 09:02:40;;;;;;;;;;;14.90;99.90;;;;;;5137232;27;19937;-80
2021/09/14 09:05:08;;;;;;;;;;;15.00;99.90;;;;;;5137038;27;19934;-80
2021/09/14 09:07:37;;;;;;;;;;;15.10;99.90;;;;;;5136721;27;19923;-81
2021/09/14 09:10:09;;;;;;;;;;;15.20;99.90;;;;;;5137005;27;20347;-82
2021/09/14 09:12:40;;;;;;;;;;;15.20;99.90;;;;;;5137131;27;19942;-82
2021/09/14 09:15:09;;;;;;;;;;;15.30;99.90;;;;;;5137278;27;19923;-81
2021/09/14 09:17:35;;;;;;;;;;;15.30;99.90;;;;;;5137035;27;19927;-81
2021/09/14 09:20:06;;;;;;;;;;;15.30;99.90;;;;;;5136686;27;19939;-81
2021/09/14 09:22:33;;;;;;;;;;;15.30;99.90;;;;;;5136865;27;19989;-82
2021/09/14 09:25:02;;;;;;;;;;;15.40;99.90;;;;;;5136546;27;19923;-82
2021/09/14 09:27:29;;;;;;;;;;;15.40;99.90;;;;;;5136996;27;19934;-82
2021/09/14 09:29:59;;;;;;;;;;;15.40;99.90;;;;;;5136629;27;20355;-81
2021/09/14 09:32:30;;;;;;;;;;;15.40;99.90;;;;;;5136801;27;19923;-83
2021/09/14 09:34:58;;;;;;;;;;;15.40;99.90;;;;;;5136637;27;19923;-83
2021/09/14 09:37:28;;;;;;;;;;;15.40;99.90;;;;;;5136459;27;20019;-84
2021/09/14 09:39:58;;;;;;;;;;;15.40;99.90;;;;;;5136524;27;19927;-83
2021/09/14 09:42:30;;;;;;;;;;;15.40;99.90;;;;;;5136687;27;19938;-85
2021/09/14 09:45:07;;;;;;;;;;;15.50;99.90;;;;;;5136363;27;20254;-84
2021/09/14 09:47:36;;;;;;;;;;;15.60;99.90;;;;;;5136397;27;20301;-84
2021/09/14 09:50:06;;;;;;;;;;;15.60;99.90;;;;;;5136526;27;20247;-84
2021/09/14 09:52:34;;;;;;;;;;;15.70;99.90;;;;;;5118846;27;20326;-84
2021/09/14 09:55:01;;;;;;;;;;;15.80;99.90;;;;;;5136447;27;20278;-84
2021/09/14 09:57:28;;;;;;;;;;;15.90;99.90;;;;;;5136382;27;20366;-84
2021/09/14 09:59:55;;;;;;;;;;;16.00;99.90;;;;;;5136211;27;19983;-84
2021/09/14 10:02:24;;;;;;;;;;;16.00;99.90;;;;;;5136291;27;20414;-85
2021/09/14 10:04:58;;;;;;;;;;;16.10;99.90;;;;;;5136066;27;19924;-85
2021/09/14 10:07:27;;;;;;;;;;;16.10;99.90;;;;;;5135756;27;20363;-84
2021/09/14 10:09:56;;;;;;;;;;;16.10;99.90;;;;;;5136331;28;19982;-86
2021/09/14 10:12:25;;;;;;;;;;;16.00;99.90;;;;;;5136011;28;20354;-86
2021/09/14 10:15:03;;;;;;;;;;;16.10;99.90;;;;;;5136137;28;19924;-86
2021/09/14 10:17:35;;;;;;;;;;;16.10;99.90;;;;;;5136180;28;19923;-86
2021/09/14 10:20:12;;;;;;;;;;;16.10;99.90;;;;;;5136279;28;19941;-87
2021/09/14 10:22:40;;;;;;;;;;;16.10;99.90;;;;;;5136097;28;20254;-87
2021/09/14 10:25:20;;;;;;;;;;;16.10;99.90;;;;;;5136001;28;19932;-87
2021/09/14 10:27:51;;;;;;;;;;;16.10;99.90;;;;;;5136177;28;19937;-87
2021/09/14 10:30:26;;;;;;;;;;;16.10;99.90;;;;;;5135763;28;20385;-86
2021/09/14 10:32:52;;;;;;;;;;;16.20;99.90;;;;;;5135890;28;19934;-87
2021/09/14 10:35:25;;;;;;;;;;;16.30;99.90;;;;;;5135996;28;19924;-87
2021/09/14 10:40:39;;;;;;;;;;;16.50;99.90;;;;;;5139929;27;19924;-87
2021/09/14 10:43:06;;;;;;;;;;;16.60;99.90;;;;;;5139974;27;19935;-87
2021/09/14 10:45:45;;;;;;;;;;;16.60;99.90;;;;;;5140002;27;19923;-87
2021/09/14 10:48:21;;;;;;;;;;;16.60;99.90;;;;;;5139848;27;19935;-87
2021/09/14 10:50:49;;;;;;;;;;;16.50;99.90;;;;;;5139854;27;20000;-86
2021/09/14 10:53:28;;;;;;;;;;;16.50;99.90;;;;;;5140035;27;19927;-87
2021/09/14 10:55:57;;;;;;;;;;;16.40;99.90;;;;;;5139832;27;19934;-87
2021/09/14 10:58:27;;;;;;;;;;;16.30;99.90;;;;;;5139765;27;20027;-87
2021/09/14 11:00:57;;;;;;;;;;;16.20;99.90;;;;;;5139417;27;19923;-87
2021/09/14 11:03:24;;;;;;;;;;;16.10;99.90;;;;;;5139376;27;19977;-87
2021/09/14 11:05:53;;;;;;;;;;;16.00;99.90;;;;;;5139427;27;19930;-87
2021/09/14 11:08:25;;;;;;;;;;;16.00;99.90;;;;;;5139292;27;19951;-87
2021/09/14 11:10:57;;;;;;;;;;;16.00;99.90;;;;;;5139195;27;19924;-86
2021/09/14 11:13:39;;;;;;;;;;;16.00;99.90;;;;;;5135722;27;19988;-87
2021/09/14 11:16:07;;;;;;;;;;;16.00;99.90;;;;;;5138952;27;20335;-87
2021/09/14 11:18:34;;;;;;;;;;;16.00;99.90;;;;;;5139291;27;19923;-86
2021/09/14 11:21:02;;;;;;;;;;;16.00;99.90;;;;;;5139279;27;20262;-87
2021/09/14 11:23:30;;;;;;;;;;;16.00;99.90;;;;;;5139120;27;20259;-87
2021/09/14 11:25:58;;;;;;;;;;;16.00;99.90;;;;;;5138994;27;19937;-87
2021/09/14 11:28:28;;;;;;;;;;;16.00;99.90;;;;;;5139164;27;19950;-87
2021/09/14 11:30:56;;;;;;;;;;;15.90;99.90;;;;;;5138160;27;19930;-87
2021/09/14 11:33:25;;;;;;;;;;;15.90;99.90;;;;;;5139324;27;19936;-87
2021/09/14 11:35:53;;;;;;;;;;;15.90;99.90;;;;;;5139132;27;19923;-86
2021/09/14 11:38:21;;;;;;;;;;;15.80;99.90;;;;;;5139038;27;19934;-87
2021/09/14 11:40:50;;;;;;;;;;;15.70;99.90;;;;;;5138957;27;19924;-88
2021/09/14 11:43:17;;;;;;;;;;;15.70;99.90;;;;;;5138922;27;19924;-88
2021/09/14 11:45:47;;;;;;;;;;;15.60;99.90;;;;;;5138758;27;19923;-88
2021/09/14 11:48:19;;;;;;;;;;;15.70;99.90;;;;;;5138956;27;20026;-88
2021/09/14 11:50:47;;;;;;;;;;;15.60;99.90;;;;;;5137488;27;19923;-88
2021/09/14 11:53:16;;;;;;;;;;;15.60;99.90;;;;;;5138744;27;19924;-88
2021/09/14 11:55:44;;;;;;;;;;;15.70;99.90;;;;;;5138559;27;19929;-88
2021/09/14 11:58:13;;;;;;;;;;;15.80;99.90;;;;;;5138509;27;19927;-87
2021/09/14 12:00:42;;;;;;;;;;;15.90;99.90;;;;;;5138500;27;19923;-87
2021/09/14 12:03:13;;;;;;;;;;;16.10;99.90;;;;;;5138344;27;19988;-87
2021/09/14 12:05:41;;;;;;;;;;;16.20;99.90;;;;;;5138285;27;20339;-87
2021/09/14 12:08:11;;;;;;;;;;;16.40;99.90;;;;;;5137824;27;19933;-86
2021/09/14 12:10:47;;;;;;;;;;;16.50;99.90;;;;;;5138156;27;19927;-86
2021/09/14 12:13:16;;;;;;;;;;;16.60;99.90;;;;;;5138220;27;19924;-86
2021/09/14 12:15:45;;;;;;;;;;;16.70;99.90;;;;;;5138132;27;19964;-86
2021/09/14 12:18:15;;;;;;;;;;;16.80;99.90;;;;;;5138244;27;19923;-87
2021/09/14 12:20:43;;;;;;;;;;;16.80;99.90;;;;;;5138076;27;20381;-87
2021/09/14 12:23:11;;;;;;;;;;;16.90;99.90;;;;;;5138002;27;20010;-86
2021/09/14 12:25:39;;;;;;;;;;;17.00;99.90;;;;;;5137720;27;19934;-86
2021/09/14 12:28:07;;;;;;;;;;;16.90;99.90;;;;;;5137896;27;19933;-87
2021/09/14 12:30:35;;;;;;;;;;;16.80;99.90;;;;;;5138050;27;19924;-86
2021/09/14 12:33:04;;;;;;;;;;;16.80;99.90;;;;;;5137719;27;20362;-87
2021/09/14 12:35:34;;;;;;;;;;;16.70;99.90;;;;;;5137645;27;19927;-86
2021/09/14 12:38:02;;;;;;;;;;;16.70;99.90;;;;;;5137644;27;19931;-87
2021/09/14 12:40:32;;;;;;;;;;;16.70;99.90;;;;;;5137728;27;19923;-87
2021/09/14 12:43:01;;;;;;;;;;;16.80;99.90;;;;;;5137492;27;19924;-86
2021/09/14 12:45:29;;;;;;;;;;;16.80;99.90;;;;;;5137267;27;19928;-86
2021/09/14 12:47:57;;;;;;;;;;;16.90;99.90;;;;;;5137490;27;19923;-86
2021/09/14 12:50:25;;;;;;;;;;;17.10;99.90;;;;;;5137415;27;19923;-87
2021/09/14 12:52:56;;;;;;;;;;;17.10;99.90;;;;;;5137430;27;19927;-86
2021/09/14 12:55:25;;;;;;;;;;;17.10;99.90;;;;;;5134455;27;20259;-86
2021/09/14 12:57:53;;;;;;;;;;;17.20;99.90;;;;;;5137280;27;19924;-86
2021/09/14 13:00:21;;;;;;;;;;;17.20;99.90;;;;;;5136957;27;19924;-86
2021/09/14 13:02:49;;;;;;;;;;;17.20;99.90;;;;;;5137374;27;19928;-86
2021/09/14 13:05:16;;;;;;;;;;;17.20;99.90;;;;;;5137503;27;19933;-85
2021/09/14 13:07:45;;;;;;;;;;;17.10;99.90;;;;;;5136983;27;19934;-87
2021/09/14 13:10:17;;;;;;;;;;;17.10;99.90;;;;;;5137290;27;19946;-87
2021/09/14 13:12:48;;;;;;;;;;;17.00;99.90;;;;;;5137419;27;19972;-86
2021/09/14 13:18:18;;;;;;;;;;;16.90;99.90;;;;;;5074327;28;20358;-87
2021/09/14 13:20:46;;;;;;;;;;;16.70;99.90;;;;;;5074221;28;19924;-87
2021/09/14 13:23:14;;;;;;;;;;;16.70;99.90;;;;;;5074178;28;19934;-86
2021/09/14 13:25:44;;;;;;;;;;;16.70;99.90;;;;;;5073990;28;19928;-87
2021/09/14 13:28:11;;;;;;;;;;;16.60;99.90;;;;;;5073930;28;19928;-87
2021/09/14 13:30:39;;;;;;;;;;;16.60;99.90;;;;;;5066431;28;19931;-87
2021/09/14 13:33:06;;;;;;;;;;;16.60;99.90;;;;;;5054095;28;19951;-86
2021/09/14 13:35:33;;;;;;;;;;;16.60;99.90;;;;;;5053870;28;19932;-87
2021/09/14 13:38:00;;;;;;;;;;;16.60;99.90;;;;;;5053843;28;19924;-86
2021/09/14 13:40:27;;;;;;;;;;;16.60;99.90;;;;;;5054011;28;20276;-87
2021/09/14 13:42:59;;;;;;;;;;;16.60;99.90;;;;;;5053953;28;19929;-87
2021/09/14 13:48:13;;;;;;;;;;;16.60;99.90;;;;;;5053682;28;20066;-85
2021/09/14 13:50:42;;;;;;;;;;;16.60;99.90;;;;;;5053727;28;19925;-85
2021/09/14 13:53:10;;;;;;;;;;;16.60;99.90;;;;;;5104659;28;19928;-87
2021/09/14 13:55:39;;;;;;;;;;;16.60;99.90;;;;;;5124030;27;19924;-87
2021/09/14 13:58:11;;;;;;;;;;;16.60;99.90;;;;;;5136454;27;19930;-87
2021/09/14 14:00:40;;;;;;;;;;;16.60;99.90;;;;;;5135949;27;19985;-86
2021/09/14 14:03:09;;;;;;;;;;;16.60;99.90;;;;;;5135798;27;19942;-87
2021/09/14 14:05:38;;;;;;;;;;;16.70;99.90;;;;;;5135719;27;19959;-86
2021/09/14 14:08:08;;;;;;;;;;;16.70;99.90;;;;;;5135278;27;19929;-86
2021/09/14 14:10:36;;;;;;;;;;;16.70;99.90;;;;;;5133583;27;20004;-86
2021/09/14 14:13:04;;;;;;;;;;;16.80;99.90;;;;;;5135653;27;19929;-87
2021/09/14 14:15:34;;;;;;;;;;;16.80;99.90;;;;;;5131568;28;20022;-85
2021/09/14 14:18:02;;;;;;;;;;;16.80;99.90;;;;;;5133815;28;19934;-86
2021/09/14 14:20:30;;;;;;;;;;;16.90;99.90;;;;;;5115499;28;19981;-87
2021/09/14 14:22:57;;;;;;;;;;;16.90;99.90;;;;;;5115680;28;19924;-86
2021/09/14 14:25:25;;;;;;;;;;;16.90;99.90;;;;;;5130912;28;19934;-84
2021/09/14 14:27:53;;;;;;;;;;;16.90;99.90;;;;;;5135934;28;19923;-86
2021/09/14 14:30:24;;;;;;;;;;;16.90;99.90;;;;;;5135693;28;20273;-86
2021/09/14 14:32:53;;;;;;;;;;;16.90;99.90;;;;;;5136100;28;19931;-86
2021/09/14 14:35:24;;;;;;;;;;;17.00;99.90;;;;;;5136293;28;19924;-86
2021/09/14 14:37:53;;;;;;;;;;;17.00;99.90;;;;;;5135780;28;19923;-86
2021/09/14 14:40:21;;;;;;;;;;;17.10;99.90;;;;;;5135871;28;19931;-86
2021/09/14 14:42:48;;;;;;;;;;;17.10;99.90;;;;;;5134675;28;19950;-86
2021/09/14 14:45:16;;;;;;;;;;;17.10;99.90;;;;;;5133923;28;19977;-86
2021/09/14 14:47:48;;;;;;;;;;;17.10;99.90;;;;;;5133679;28;19963;-87
2021/09/14 14:50:19;;;;;;;;;;;17.10;99.90;;;;;;5135751;28;20324;-86
2021/09/14 14:52:47;;;;;;;;;;;16.80;99.90;;;;;;5135948;28;20228;-84
2021/09/14 14:55:15;;;;;;;;;;;17.10;99.90;;;;;;5135793;28;20022;-86
2021/09/14 14:57:44;;;;;;;;;;;17.10;99.90;;;;;;5135209;28;19930;-87
2021/09/14 15:00:14;;;;;;;;;;;17.10;99.90;;;;;;5135660;28;20023;-86
2021/09/14 15:02:44;;;;;;;;;;;17.10;99.90;;;;;;5135945;28;20034;-87
2021/09/14 15:05:12;;;;;;;;;;;17.10;99.90;;;;;;5134830;28;19945;-87
2021/09/14 15:07:45;;;;;;;;;;;17.10;99.90;;;;;;5135262;28;20327;-87
2021/09/14 15:10:16;;;;;;;;;;;17.10;99.90;;;;;;5135731;28;19923;-86
2021/09/14 15:12:44;;;;;;;;;;;17.10;99.90;;;;;;5135539;28;19933;-86
2021/09/14 15:15:13;;;;;;;;;;;17.10;99.90;;;;;;5135649;28;19928;-87
2021/09/14 15:17:44;;;;;;;;;;;17.10;99.90;;;;;;5135761;28;19971;-87
2021/09/14 15:20:11;;;;;;;;;;;17.10;99.90;;;;;;5135600;28;19934;-87
2021/09/14 15:22:48;;;;;;;;;;;17.10;99.90;;;;;;5135582;28;19934;-87